sensor_id;sensor_type;location;lat;lon;timestamp;pressure;altitude;pressure_sealevel;temperature;humidity
56456;BME280;42354;53.218;6.564;2023-02-15T00:02:26;46987.28;;;-142.92;100.00
56456;BME280;42354;53.218;6.564;2023-02-15T00:04:52;47007.81;;;-142.92;100.00
56456;BME280;42354;53.218;6.564;2023-02-15T00:07:18;46991.38;;;-142.92;100.00
56456;BME280;42354;53.218;6.564;2023-02-15T00:09:47;47003.69;;;-142.92;100.00
56456;BME280;42354;53.218;6.564;2023-02-15T00:12:13;46979.06;;;-142.92;100.00
56456;BME280;42354;53.218;6.564;2023-02-15T00:14:39;46995.50;;;-142.92;100.00
56456;BME280;42354;53.218;6.564;2023-02-15T00:17:04;46983.19;;;-142.92;100.00
56456;BME280;42354;53.218;6.564;2023-02-15T00:19:29;46991.38;;;-142.92;100.00
56456;BME280;42354;53.218;6.564;2023-02-15T00:21:55;46999.59;;;-142.92;100.00
56456;BME280;42354;53.218;6.564;2023-02-15T00:24:20;47011.91;;;-142.92;100.00
56456;BME280;42354;53.218;6.564;2023-02-15T00:26:47;47009.84;;;-142.92;100.00
56456;BME280;42354;53.218;6.564;2023-02-15T00:29:17;46995.50;;;-142.92;100.00
56456;BME280;42354;53.218;6.564;2023-02-15T00:31:43;46993.44;;;-142.92;100.00
56456;BME280;42354;53.218;6.564;2023-02-15T00:34:17;46999.59;;;-142.92;100.00
56456;BME280;42354;53.218;6.564;2023-02-15T00:36:43;46966.75;;;-142.92;100.00
56456;BME280;42354;53.218;6.564;2023-02-15T00:39:10;46991.38;;;-142.92;100.00
56456;BME280;42354;53.218;6.564;2023-02-15T00:41:35;46989.34;;;-142.92;100.00
56456;BME280;42354;53.218;6.564;2023-02-15T00:44:01;46989.34;;;-142.92;100.00
56456;BME280;42354;53.218;6.564;2023-02-15T00:46:26;46989.34;;;-142.92;100.00
56456;BME280;42354;53.218;6.564;2023-02-15T00:48:52;46989.34;;;-142.92;100.00
56456;BME280;42354;53.218;6.564;2023-02-15T00:51:17;46993.44;;;-142.92;100.00
56456;BME280;42354;53.218;6.564;2023-02-15T00:53:43;46983.19;;;-142.92;100.00
56456;BME280;42354;53.218;6.564;2023-02-15T00:56:10;46968.81;;;-142.92;100.00
56456;BME280;42354;53.218;6.564;2023-02-15T00:58:36;47011.91;;;-142.92;100.00
56456;BME280;42354;53.218;6.564;2023-02-15T01:01:10;46999.59;;;-142.92;100.00
56456;BME280;42354;53.218;6.564;2023-02-15T01:03:36;46987.28;;;-142.92;100.00
56456;BME280;42354;53.218;6.564;2023-02-15T01:06:02;46960.59;;;-142.92;100.00
56456;BME280;42354;53.218;6.564;2023-02-15T01:08:28;46983.19;;;-142.92;100.00
56456;BME280;42354;53.218;6.564;2023-02-15T01:10:53;47007.81;;;-142.92;100.00
56456;BME280;42354;53.218;6.564;2023-02-15T01:13:19;46970.88;;;-142.92;100.00
56456;BME280;42354;53.218;6.564;2023-02-15T01:15:45;46991.38;;;-142.92;100.00
56456;BME280;42354;53.218;6.564;2023-02-15T01:18:11;47005.75;;;-142.92;100.00
56456;BME280;42354;53.218;6.564;2023-02-15T01:20:38;47009.84;;;-142.92;100.00
56456;BME280;42354;53.218;6.564;2023-02-15T01:23:06;46983.19;;;-142.92;100.00
56456;BME280;42354;53.218;6.564;2023-02-15T01:25:33;47007.81;;;-142.92;100.00
56456;BME280;42354;53.218;6.564;2023-02-15T01:28:00;47001.66;;;-142.92;100.00
56456;BME280;42354;53.218;6.564;2023-02-15T01:30:26;46987.28;;;-142.92;100.00
56456;BME280;42354;53.218;6.564;2023-02-15T01:32:54;46995.50;;;-142.92;100.00
56456;BME280;42354;53.218;6.564;2023-02-15T01:35:21;47009.84;;;-142.92;100.00
56456;BME280;42354;53.218;6.564;2023-02-15T01:37:46;46985.22;;;-142.92;100.00
56456;BME280;42354;53.218;6.564;2023-02-15T01:40:14;46995.50;;;-142.92;100.00
56456;BME280;42354;53.218;6.564;2023-02-15T01:42:40;46979.06;;;-142.92;100.00
56456;BME280;42354;53.218;6.564;2023-02-15T01:45:29;46985.22;;;-142.92;100.00
56456;BME280;42354;53.218;6.564;2023-02-15T01:48:19;46983.19;;;-142.92;100.00
56456;BME280;42354;53.218;6.564;2023-02-15T01:50:56;46987.28;;;-142.92;100.00
56456;BME280;42354;53.218;6.564;2023-02-15T01:53:40;46999.59;;;-142.92;100.00
56456;BME280;42354;53.218;6.564;2023-02-15T01:56:11;47003.69;;;-142.92;100.00
56456;BME280;42354;53.218;6.564;2023-02-15T01:58:38;46999.59;;;-142.92;100.00
56456;BME280;42354;53.218;6.564;2023-02-15T02:01:04;46999.59;;;-142.92;100.00
56456;BME280;42354;53.218;6.564;2023-02-15T02:06:17;46989.34;;;-142.92;100.00
56456;BME280;42354;53.218;6.564;2023-02-15T02:08:43;46993.44;;;-142.92;100.00
56456;BME280;42354;53.218;6.564;2023-02-15T02:11:11;46991.38;;;-142.92;100.00
56456;BME280;42354;53.218;6.564;2023-02-15T02:13:37;46981.13;;;-142.92;100.00
56456;BME280;42354;53.218;6.564;2023-02-15T02:16:25;46974.97;;;-142.92;100.00
56456;BME280;42354;53.218;6.564;2023-02-15T02:27:39;47005.75;;;-142.92;100.00
56456;BME280;42354;53.218;6.564;2023-02-15T02:30:28;47003.69;;;-142.92;100.00
56456;BME280;42354;53.218;6.564;2023-02-15T02:33:10;46999.59;;;-142.92;100.00
56456;BME280;42354;53.218;6.564;2023-02-15T02:35:59;46983.19;;;-142.92;100.00
56456;BME280;42354;53.218;6.564;2023-02-15T02:43:52;46995.50;;;-142.92;100.00
56456;BME280;42354;53.218;6.564;2023-02-15T02:50:07;46981.13;;;-142.92;100.00
56456;BME280;42354;53.218;6.564;2023-02-15T02:52:47;46991.38;;;-142.92;100.00
56456;BME280;42354;53.218;6.564;2023-02-15T02:58:18;46985.22;;;-142.92;100.00
56456;BME280;42354;53.218;6.564;2023-02-15T03:00:53;46993.44;;;-142.92;100.00
56456;BME280;42354;53.218;6.564;2023-02-15T03:03:34;47001.66;;;-142.92;100.00
56456;BME280;42354;53.218;6.564;2023-02-15T03:06:06;46989.34;;;-142.92;100.00
56456;BME280;42354;53.218;6.564;2023-02-15T03:08:38;46977.03;;;-142.92;100.00
56456;BME280;42354;53.218;6.564;2023-02-15T03:11:05;46968.81;;;-142.92;100.00
56456;BME280;42354;53.218;6.564;2023-02-15T03:13:33;46999.59;;;-142.92;100.00
56456;BME280;42354;53.218;6.564;2023-02-15T03:16:00;46989.34;;;-142.92;100.00
56456;BME280;42354;53.218;6.564;2023-02-15T03:18:49;46993.44;;;-142.92;100.00
56456;BME280;42354;53.218;6.564;2023-02-15T03:21:45;47007.81;;;-142.92;100.00
56456;BME280;42354;53.218;6.564;2023-02-15T03:24:25;47005.75;;;-142.92;100.00
56456;BME280;42354;53.218;6.564;2023-02-15T03:26:54;46999.59;;;-142.92;100.00
56456;BME280;42354;53.218;6.564;2023-02-15T03:29:24;46995.50;;;-142.92;100.00
56456;BME280;42354;53.218;6.564;2023-02-15T03:31:54;46987.28;;;-142.92;100.00
56456;BME280;42354;53.218;6.564;2023-02-15T03:34:24;46997.53;;;-142.92;100.00
56456;BME280;42354;53.218;6.564;2023-02-15T03:37:07;46966.75;;;-142.92;100.00
56456;BME280;42354;53.218;6.564;2023-02-15T03:40:01;46993.44;;;-142.92;100.00
56456;BME280;42354;53.218;6.564;2023-02-15T03:42:56;47016.00;;;-142.92;100.00
56456;BME280;42354;53.218;6.564;2023-02-15T03:45:28;46991.38;;;-142.92;100.00
56456;BME280;42354;53.218;6.564;2023-02-15T03:47:57;46970.88;;;-142.92;100.00
56456;BME280;42354;53.218;6.564;2023-02-15T03:50:31;46997.53;;;-142.92;100.00
56456;BME280;42354;53.218;6.564;2023-02-15T03:53:18;46993.44;;;-142.92;100.00
56456;BME280;42354;53.218;6.564;2023-02-15T03:55:50;46997.53;;;-142.92;100.00
56456;BME280;42354;53.218;6.564;2023-02-15T03:58:18;46995.50;;;-142.92;100.00
56456;BME280;42354;53.218;6.564;2023-02-15T04:01:15;47001.66;;;-142.92;100.00
56456;BME280;42354;53.218;6.564;2023-02-15T04:04:08;47001.66;;;-142.92;100.00
56456;BME280;42354;53.218;6.564;2023-02-15T04:06:35;46983.19;;;-142.92;100.00
56456;BME280;42354;53.218;6.564;2023-02-15T04:09:01;46966.75;;;-142.92;100.00
56456;BME280;42354;53.218;6.564;2023-02-15T04:11:45;46983.19;;;-142.92;100.00
56456;BME280;42354;53.218;6.564;2023-02-15T04:14:11;46991.38;;;-142.92;100.00
56456;BME280;42354;53.218;6.564;2023-02-15T04:16:55;46983.19;;;-142.92;100.00
56456;BME280;42354;53.218;6.564;2023-02-15T04:19:20;46974.97;;;-142.92;100.00
56456;BME280;42354;53.218;6.564;2023-02-15T04:22:04;46999.59;;;-142.92;100.00
56456;BME280;42354;53.218;6.564;2023-02-15T04:24:49;46985.22;;;-142.92;100.00
56456;BME280;42354;53.218;6.564;2023-02-15T04:27:33;46987.28;;;-142.92;100.00
56456;BME280;42354;53.218;6.564;2023-02-15T04:30:00;46999.59;;;-142.92;100.00
56456;BME280;42354;53.218;6.564;2023-02-15T04:32:25;46989.34;;;-142.92;100.00
56456;BME280;42354;53.218;6.564;2023-02-15T04:34:50;46987.28;;;-142.92;100.00
56456;BME280;42354;53.218;6.564;2023-02-15T04:37:17;46983.19;;;-142.92;100.00
56456;BME280;42354;53.218;6.564;2023-02-15T04:39:42;46993.44;;;-142.92;100.00
56456;BME280;42354;53.218;6.564;2023-02-15T04:42:09;46964.72;;;-142.92;100.00
56456;BME280;42354;53.218;6.564;2023-02-15T04:44:34;46989.34;;;-142.92;100.00
56456;BME280;42354;53.218;6.564;2023-02-15T04:47:00;46983.19;;;-142.92;100.00
56456;BME280;42354;53.218;6.564;2023-02-15T04:49:25;46972.91;;;-142.92;100.00
56456;BME280;42354;53.218;6.564;2023-02-15T04:51:50;46997.53;;;-142.92;100.00
56456;BME280;42354;53.218;6.564;2023-02-15T04:54:16;46983.19;;;-142.92;100.00
56456;BME280;42354;53.218;6.564;2023-02-15T04:56:42;46995.50;;;-142.92;100.00
56456;BME280;42354;53.218;6.564;2023-02-15T04:59:10;46995.50;;;-142.92;100.00
56456;BME280;42354;53.218;6.564;2023-02-15T05:01:35;46977.03;;;-142.92;100.00
56456;BME280;42354;53.218;6.564;2023-02-15T05:04:00;46999.59;;;-142.92;100.00
56456;BME280;42354;53.218;6.564;2023-02-15T05:06:26;47005.75;;;-142.92;100.00
56456;BME280;42354;53.218;6.564;2023-02-15T05:08:52;46979.06;;;-142.92;100.00
56456;BME280;42354;53.218;6.564;2023-02-15T05:11:17;46999.59;;;-142.92;100.00
56456;BME280;42354;53.218;6.564;2023-02-15T05:13:42;46981.13;;;-142.92;100.00
56456;BME280;42354;53.218;6.564;2023-02-15T05:16:08;47007.81;;;-142.92;100.00
56456;BME280;42354;53.218;6.564;2023-02-15T05:18:35;47001.66;;;-142.92;100.00
56456;BME280;42354;53.218;6.564;2023-02-15T05:21:00;46997.53;;;-142.92;100.00
56456;BME280;42354;53.218;6.564;2023-02-15T05:23:25;46997.53;;;-142.92;100.00
56456;BME280;42354;53.218;6.564;2023-02-15T05:25:51;47001.66;;;-142.92;100.00
56456;BME280;42354;53.218;6.564;2023-02-15T05:28:36;47005.75;;;-142.92;100.00
56456;BME280;42354;53.218;6.564;2023-02-15T05:31:11;46985.22;;;-142.92;100.00
56456;BME280;42354;53.218;6.564;2023-02-15T05:33:38;46989.34;;;-142.92;100.00
56456;BME280;42354;53.218;6.564;2023-02-15T05:36:04;47018.06;;;-142.92;100.00
56456;BME280;42354;53.218;6.564;2023-02-15T05:38:30;46995.50;;;-142.92;100.00
56456;BME280;42354;53.218;6.564;2023-02-15T05:40:56;46989.34;;;-142.92;100.00
56456;BME280;42354;53.218;6.564;2023-02-15T05:43:21;47005.75;;;-142.92;100.00
56456;BME280;42354;53.218;6.564;2023-02-15T05:45:48;46979.06;;;-142.92;100.00
56456;BME280;42354;53.218;6.564;2023-02-15T05:48:14;46991.38;;;-142.92;100.00
56456;BME280;42354;53.218;6.564;2023-02-15T05:50:39;46983.19;;;-142.92;100.00
56456;BME280;42354;53.218;6.564;2023-02-15T05:53:05;46983.19;;;-142.92;100.00
56456;BME280;42354;53.218;6.564;2023-02-15T05:55:30;46993.44;;;-142.92;100.00
56456;BME280;42354;53.218;6.564;2023-02-15T05:57:55;46985.22;;;-142.92;100.00
56456;BME280;42354;53.218;6.564;2023-02-15T06:00:21;46977.03;;;-142.92;100.00
56456;BME280;42354;53.218;6.564;2023-02-15T06:02:46;46991.38;;;-142.92;100.00
56456;BME280;42354;53.218;6.564;2023-02-15T06:05:12;47011.91;;;-142.92;100.00
56456;BME280;42354;53.218;6.564;2023-02-15T06:07:37;47007.81;;;-142.92;100.00
56456;BME280;42354;53.218;6.564;2023-02-15T06:10:04;46993.44;;;-142.92;100.00
56456;BME280;42354;53.218;6.564;2023-02-15T06:12:29;46985.22;;;-142.92;100.00
56456;BME280;42354;53.218;6.564;2023-02-15T06:14:55;47007.81;;;-142.92;100.00
56456;BME280;42354;53.218;6.564;2023-02-15T06:17:21;47013.97;;;-142.92;100.00
56456;BME280;42354;53.218;6.564;2023-02-15T06:19:47;46983.19;;;-142.92;100.00
56456;BME280;42354;53.218;6.564;2023-02-15T06:22:14;46995.50;;;-142.92;100.00
56456;BME280;42354;53.218;6.564;2023-02-15T06:24:39;46995.50;;;-142.92;100.00
56456;BME280;42354;53.218;6.564;2023-02-15T06:27:07;47007.81;;;-142.92;100.00
56456;BME280;42354;53.218;6.564;2023-02-15T06:29:33;46995.50;;;-142.92;100.00
56456;BME280;42354;53.218;6.564;2023-02-15T06:31:58;46985.22;;;-142.92;100.00
56456;BME280;42354;53.218;6.564;2023-02-15T06:34:23;47005.75;;;-142.92;100.00
56456;BME280;42354;53.218;6.564;2023-02-15T06:36:49;46960.59;;;-142.92;100.00
56456;BME280;42354;53.218;6.564;2023-02-15T06:39:17;47026.28;;;-142.92;100.00
56456;BME280;42354;53.218;6.564;2023-02-15T06:41:43;46985.22;;;-142.92;100.00
56456;BME280;42354;53.218;6.564;2023-02-15T06:44:08;46991.38;;;-142.92;100.00
56456;BME280;42354;53.218;6.564;2023-02-15T06:46:34;46991.38;;;-142.92;100.00
56456;BME280;42354;53.218;6.564;2023-02-15T06:48:59;46993.44;;;-142.92;100.00
56456;BME280;42354;53.218;6.564;2023-02-15T06:51:25;46993.44;;;-142.92;100.00
56456;BME280;42354;53.218;6.564;2023-02-15T06:53:50;47005.75;;;-142.92;100.00
56456;BME280;42354;53.218;6.564;2023-02-15T06:56:15;46995.50;;;-142.92;100.00
56456;BME280;42354;53.218;6.564;2023-02-15T06:58:41;46966.75;;;-142.92;100.00
56456;BME280;42354;53.218;6.564;2023-02-15T07:01:08;46991.38;;;-142.92;100.00
56456;BME280;42354;53.218;6.564;2023-02-15T07:03:34;46999.59;;;-142.92;100.00
56456;BME280;42354;53.218;6.564;2023-02-15T07:06:01;47003.69;;;-142.92;100.00
56456;BME280;42354;53.218;6.564;2023-02-15T07:08:27;46991.38;;;-142.92;100.00
56456;BME280;42354;53.218;6.564;2023-02-15T07:10:53;46997.53;;;-142.92;100.00
56456;BME280;42354;53.218;6.564;2023-02-15T07:13:20;46999.59;;;-142.92;100.00
56456;BME280;42354;53.218;6.564;2023-02-15T07:15:46;46985.22;;;-142.92;100.00
56456;BME280;42354;53.218;6.564;2023-02-15T07:18:13;47003.69;;;-142.92;100.00
56456;BME280;42354;53.218;6.564;2023-02-15T07:20:39;46983.19;;;-142.92;100.00
56456;BME280;42354;53.218;6.564;2023-02-15T07:23:07;46983.19;;;-142.92;100.00
56456;BME280;42354;53.218;6.564;2023-02-15T07:25:33;46977.03;;;-142.92;100.00
56456;BME280;42354;53.218;6.564;2023-02-15T07:28:01;46989.34;;;-142.92;100.00
56456;BME280;42354;53.218;6.564;2023-02-15T07:30:27;46983.19;;;-142.92;100.00
56456;BME280;42354;53.218;6.564;2023-02-15T07:32:56;47005.75;;;-142.92;100.00
56456;BME280;42354;53.218;6.564;2023-02-15T07:36:07;46995.50;;;-142.92;100.00
56456;BME280;42354;53.218;6.564;2023-02-15T07:38:39;47003.69;;;-142.92;100.00
56456;BME280;42354;53.218;6.564;2023-02-15T07:41:07;47007.81;;;-142.92;100.00
56456;BME280;42354;53.218;6.564;2023-02-15T07:43:35;47007.81;;;-142.92;100.00
56456;BME280;42354;53.218;6.564;2023-02-15T07:46:03;46997.53;;;-142.92;100.00
56456;BME280;42354;53.218;6.564;2023-02-15T07:48:31;47005.75;;;-142.92;100.00
56456;BME280;42354;53.218;6.564;2023-02-15T07:51:01;47003.69;;;-142.92;100.00
56456;BME280;42354;53.218;6.564;2023-02-15T07:53:27;46974.97;;;-142.92;100.00
56456;BME280;42354;53.218;6.564;2023-02-15T07:55:53;46987.28;;;-142.92;100.00
56456;BME280;42354;53.218;6.564;2023-02-15T07:58:20;47013.97;;;-142.92;100.00
56456;BME280;42354;53.218;6.564;2023-02-15T08:00:45;47009.84;;;-142.92;100.00
56456;BME280;42354;53.218;6.564;2023-02-15T08:03:24;46997.53;;;-142.92;100.00
56456;BME280;42354;53.218;6.564;2023-02-15T08:05:55;47007.81;;;-142.92;100.00
56456;BME280;42354;53.218;6.564;2023-02-15T08:08:21;46983.19;;;-142.92;100.00
56456;BME280;42354;53.218;6.564;2023-02-15T08:19:18;47003.69;;;-142.92;100.00
56456;BME280;42354;53.218;6.564;2023-02-15T08:21:47;47011.91;;;-142.92;100.00
56456;BME280;42354;53.218;6.564;2023-02-15T08:24:15;46991.38;;;-142.92;100.00
56456;BME280;42354;53.218;6.564;2023-02-15T08:26:41;47003.69;;;-142.92;100.00
56456;BME280;42354;53.218;6.564;2023-02-15T08:29:09;47007.81;;;-142.92;100.00
56456;BME280;42354;53.218;6.564;2023-02-15T08:31:35;46974.97;;;-142.92;100.00
56456;BME280;42354;53.218;6.564;2023-02-15T08:34:03;46987.28;;;-142.92;100.00
56456;BME280;42354;53.218;6.564;2023-02-15T08:36:30;47024.22;;;-142.92;100.00
56456;BME280;42354;53.218;6.564;2023-02-15T08:39:03;47011.91;;;-142.92;100.00
56456;BME280;42354;53.218;6.564;2023-02-15T08:41:31;46989.34;;;-142.92;100.00
56456;BME280;42354;53.218;6.564;2023-02-15T08:43:59;46991.38;;;-142.92;100.00
56456;BME280;42354;53.218;6.564;2023-02-15T08:46:27;46997.53;;;-142.92;100.00
56456;BME280;42354;53.218;6.564;2023-02-15T08:48:53;47005.75;;;-142.92;100.00
56456;BME280;42354;53.218;6.564;2023-02-15T08:51:23;47005.75;;;-142.92;100.00
56456;BME280;42354;53.218;6.564;2023-02-15T08:53:53;47003.69;;;-142.92;100.00
56456;BME280;42354;53.218;6.564;2023-02-15T08:56:21;46991.38;;;-142.92;100.00
56456;BME280;42354;53.218;6.564;2023-02-15T08:58:47;46995.50;;;-142.92;100.00
56456;BME280;42354;53.218;6.564;2023-02-15T09:01:18;46991.38;;;-142.92;100.00
56456;BME280;42354;53.218;6.564;2023-02-15T09:03:46;47009.84;;;-142.92;100.00
56456;BME280;42354;53.218;6.564;2023-02-15T09:06:12;46995.50;;;-142.92;100.00
56456;BME280;42354;53.218;6.564;2023-02-15T09:08:37;46995.50;;;-142.92;100.00
56456;BME280;42354;53.218;6.564;2023-02-15T09:11:06;47011.91;;;-142.92;100.00
56456;BME280;42354;53.218;6.564;2023-02-15T09:13:32;47001.66;;;-142.92;100.00
56456;BME280;42354;53.218;6.564;2023-02-15T09:16:00;47003.69;;;-142.92;99.94
56456;BME280;42354;53.218;6.564;2023-02-15T09:18:26;46987.28;;;-142.92;99.93
56456;BME280;42354;53.218;6.564;2023-02-15T09:20:52;47024.22;;;-142.92;100.00
56456;BME280;42354;53.218;6.564;2023-02-15T09:23:17;46997.53;;;-142.92;99.66
56456;BME280;42354;53.218;6.564;2023-02-15T09:25:42;47024.22;;;-142.92;99.59
56456;BME280;42354;53.218;6.564;2023-02-15T09:28:08;47001.66;;;-142.92;99.34
56456;BME280;42354;53.218;6.564;2023-02-15T09:30:33;47011.91;;;-142.92;98.89
56456;BME280;42354;53.218;6.564;2023-02-15T09:32:59;46995.50;;;-142.92;98.19
56456;BME280;42354;53.218;6.564;2023-02-15T09:35:25;46999.59;;;-142.92;97.53
56456;BME280;42354;53.218;6.564;2023-02-15T09:37:50;47016.00;;;-142.92;97.19
56456;BME280;42354;53.218;6.564;2023-02-15T09:40:16;47020.13;;;-142.92;96.84
56456;BME280;42354;53.218;6.564;2023-02-15T09:43:01;47005.75;;;-142.92;95.89
56456;BME280;42354;53.218;6.564;2023-02-15T09:48:36;47007.81;;;-142.92;93.90
56456;BME280;42354;53.218;6.564;2023-02-15T09:54:16;47011.91;;;-142.92;93.75
56456;BME280;42354;53.218;6.564;2023-02-15T09:56:52;46991.38;;;-142.92;92.62
56456;BME280;42354;53.218;6.564;2023-02-15T09:59:35;47001.66;;;-142.92;91.42
56456;BME280;42354;53.218;6.564;2023-02-15T10:09:58;46997.53;;;-142.92;88.81
56456;BME280;42354;53.218;6.564;2023-02-15T10:24:11;47007.81;;;-142.92;84.50
56456;BME280;42354;53.218;6.564;2023-02-15T10:26:48;46997.53;;;-142.92;84.20
56456;BME280;42354;53.218;6.564;2023-02-15T10:29:33;46999.59;;;-142.92;83.83
56456;BME280;42354;53.218;6.564;2023-02-15T10:40:15;46999.59;;;-142.92;81.50
56456;BME280;42354;53.218;6.564;2023-02-15T10:45:37;47018.06;;;-142.92;79.57
56456;BME280;42354;53.218;6.564;2023-02-15T10:51:12;47003.69;;;-142.92;77.51
56456;BME280;42354;53.218;6.564;2023-02-15T10:54:18;47009.84;;;-142.92;76.97
56456;BME280;42354;53.218;6.564;2023-02-15T10:57:30;47020.13;;;-142.92;76.27
56456;BME280;42354;53.218;6.564;2023-02-15T11:00:05;47030.38;;;-142.92;75.84
56456;BME280;42354;53.218;6.564;2023-02-15T11:02:49;47011.91;;;-142.92;74.02
56456;BME280;42354;53.218;6.564;2023-02-15T11:05:39;47040.63;;;-142.92;75.53
56456;BME280;42354;53.218;6.564;2023-02-15T11:08:09;47011.91;;;-142.92;74.05
56456;BME280;42354;53.218;6.564;2023-02-15T11:10:39;47007.81;;;-142.92;73.30
56456;BME280;42354;53.218;6.564;2023-02-15T11:13:14;47022.16;;;-142.92;71.76
56456;BME280;42354;53.218;6.564;2023-02-15T11:15:51;47016.00;;;-142.92;71.97
56456;BME280;42354;53.218;6.564;2023-02-15T11:21:01;46999.59;;;-142.92;70.64
56456;BME280;42354;53.218;6.564;2023-02-15T11:23:28;47005.75;;;-142.92;70.17
56456;BME280;42354;53.218;6.564;2023-02-15T11:25:58;47003.69;;;-142.92;69.48
56456;BME280;42354;53.218;6.564;2023-02-15T11:28:34;47003.69;;;-142.92;68.11
56456;BME280;42354;53.218;6.564;2023-02-15T11:31:13;47018.06;;;-142.92;67.67
56456;BME280;42354;53.218;6.564;2023-02-15T11:33:42;47016.00;;;-142.92;68.01
56456;BME280;42354;53.218;6.564;2023-02-15T11:36:20;47011.91;;;-142.92;66.86
56456;BME280;42354;53.218;6.564;2023-02-15T11:38:50;47007.81;;;-142.92;66.59
56456;BME280;42354;53.218;6.564;2023-02-15T11:41:21;46999.59;;;-142.92;66.08
56456;BME280;42354;53.218;6.564;2023-02-15T11:43:58;47011.91;;;-142.92;65.40
56456;BME280;42354;53.218;6.564;2023-02-15T11:46:26;47020.13;;;-142.92;65.07
56456;BME280;42354;53.218;6.564;2023-02-15T11:48:51;47030.38;;;-142.92;64.02
56456;BME280;42354;53.218;6.564;2023-02-15T11:51:18;47007.81;;;-142.92;63.61
56456;BME280;42354;53.218;6.564;2023-02-15T11:53:47;47024.22;;;-142.92;63.50
56456;BME280;42354;53.218;6.564;2023-02-15T11:56:19;47003.69;;;-142.92;62.36
56456;BME280;42354;53.218;6.564;2023-02-15T11:58:58;46999.59;;;-142.92;61.77
56456;BME280;42354;53.218;6.564;2023-02-15T12:01:45;47007.81;;;-142.92;60.79
56456;BME280;42354;53.218;6.564;2023-02-15T12:04:24;47020.13;;;-142.92;59.76
56456;BME280;42354;53.218;6.564;2023-02-15T12:07:04;46997.53;;;-142.92;59.31
56456;BME280;42354;53.218;6.564;2023-02-15T12:12:27;47003.69;;;-142.92;56.49
56456;BME280;42354;53.218;6.564;2023-02-15T12:14:58;46995.50;;;-142.92;57.74
56456;BME280;42354;53.218;6.564;2023-02-15T12:17:30;46997.53;;;-142.92;57.49
56456;BME280;42354;53.218;6.564;2023-02-15T12:19:59;47013.97;;;-142.92;57.09
56456;BME280;42354;53.218;6.564;2023-02-15T12:24:52;46997.53;;;-142.92;55.59
56456;BME280;42354;53.218;6.564;2023-02-15T12:27:21;47007.81;;;-142.92;55.49
56456;BME280;42354;53.218;6.564;2023-02-15T12:30:00;47018.06;;;-142.92;54.22
56456;BME280;42354;53.218;6.564;2023-02-15T12:32:34;46997.53;;;-142.92;55.15
56456;BME280;42354;53.218;6.564;2023-02-15T12:35:29;47007.81;;;-142.92;54.29
56456;BME280;42354;53.218;6.564;2023-02-15T12:40:40;46991.38;;;-142.92;54.75
56456;BME280;42354;53.218;6.564;2023-02-15T12:43:35;47013.97;;;-142.92;54.32
56456;BME280;42354;53.218;6.564;2023-02-15T12:46:21;47009.84;;;-142.92;54.04
56456;BME280;42354;53.218;6.564;2023-02-15T12:48:47;46991.38;;;-142.92;55.03
56456;BME280;42354;53.218;6.564;2023-02-15T12:51:42;46999.59;;;-142.92;54.43
56456;BME280;42354;53.218;6.564;2023-02-15T12:57:20;47001.66;;;-142.92;54.05
56456;BME280;42354;53.218;6.564;2023-02-15T13:02:41;47005.75;;;-142.92;54.68
56456;BME280;42354;53.218;6.564;2023-02-15T13:05:21;47009.84;;;-142.92;54.46
56456;BME280;42354;53.218;6.564;2023-02-15T13:07:52;46989.34;;;-142.92;54.96
56456;BME280;42354;53.218;6.564;2023-02-15T13:10:31;46991.38;;;-142.92;54.74
56456;BME280;42354;53.218;6.564;2023-02-15T13:12:58;47020.13;;;-142.92;55.26
56456;BME280;42354;53.218;6.564;2023-02-15T13:17:51;46997.53;;;-142.92;55.39
56456;BME280;42354;53.218;6.564;2023-02-15T13:20:20;46995.50;;;-142.92;55.21
56456;BME280;42354;53.218;6.564;2023-02-15T13:22:52;46999.59;;;-142.92;55.62
56456;BME280;42354;53.218;6.564;2023-02-15T13:25:19;46999.59;;;-142.92;55.54
56456;BME280;42354;53.218;6.564;2023-02-15T13:27:50;46999.59;;;-142.92;55.10
56456;BME280;42354;53.218;6.564;2023-02-15T13:30:23;47016.00;;;-142.92;55.18
56456;BME280;42354;53.218;6.564;2023-02-15T13:32:54;47003.69;;;-142.92;55.13
56456;BME280;42354;53.218;6.564;2023-02-15T13:35:21;47003.69;;;-142.92;55.40
56456;BME280;42354;53.218;6.564;2023-02-15T13:38:23;47003.69;;;-142.92;54.83
56456;BME280;42354;53.218;6.564;2023-02-15T13:41:31;46997.53;;;-142.92;54.88
56456;BME280;42354;53.218;6.564;2023-02-15T13:43:43;46989.34;;;-142.92;55.04
56456;BME280;42354;53.218;6.564;2023-02-15T13:46:27;46991.38;;;-142.92;54.66
56456;BME280;42354;53.218;6.564;2023-02-15T13:49:30;47011.91;;;-142.92;54.46
56456;BME280;42354;53.218;6.564;2023-02-15T13:52:24;46995.50;;;-142.92;54.26
56456;BME280;42354;53.218;6.564;2023-02-15T14:13:58;46997.53;;;-142.92;55.30
56456;BME280;42354;53.218;6.564;2023-02-15T14:16:36;47003.69;;;-142.92;55.69
56456;BME280;42354;53.218;6.564;2023-02-15T14:19:57;46995.50;;;-142.92;55.62
56456;BME280;42354;53.218;6.564;2023-02-15T14:22:36;46995.50;;;-142.92;54.73
56456;BME280;42354;53.218;6.564;2023-02-15T14:28:14;47007.81;;;-142.92;55.03
56456;BME280;42354;53.218;6.564;2023-02-15T14:30:47;46995.50;;;-142.92;55.40
56456;BME280;42354;53.218;6.564;2023-02-15T14:35:48;47003.69;;;-142.92;55.74
56456;BME280;42354;53.218;6.564;2023-02-15T14:38:36;47005.75;;;-142.92;55.69
56456;BME280;42354;53.218;6.564;2023-02-15T14:41:20;46999.59;;;-142.92;55.26
56456;BME280;42354;53.218;6.564;2023-02-15T14:48:52;46991.38;;;-142.92;55.71
56456;BME280;42354;53.218;6.564;2023-02-15T14:54:07;46987.28;;;-142.92;55.78
56456;BME280;42354;53.218;6.564;2023-02-15T14:56:33;47011.91;;;-142.92;55.52
56456;BME280;42354;53.218;6.564;2023-02-15T14:59:12;46995.50;;;-142.92;54.82